Search for airport 
image banner adimage banner adimage banner ad
image banner ad

05PS - Mills Brothers

Located in Burnt Cabins, United States

ICAO - 05PS, IATA -

Data provided by Airmate  

General information

Coordinates: N40°8'34" W77°51'43"
Elevation is 1210 feet MSL.
 
View others Airports in Pennsylvania

Operational data

Special qualification required
Current time UTC:
Current local time:
Weather at : KAOO - Altoona-Blair County ( 42 km )
METAR: KAOO 132053Z AUTO 21011KT 10SM CLR 26/19 A2986 RMK AO2 SLP101 T02610189 58012
TAF: KAOO 131734Z 1318/1418 23009KT P6SM SCT050 FM132000 27008KT P6SM -SHRA VCTS BKN040CB FM140100 28005KT P6SM SCT050 BKN150 FM140700 25004KT 1SM BR OVC008 FM141200 27008KT P6SM BKN080
View NOTAMs / SUP AIP / TFR affecting this airport [VIEW]
Communications frequencies: [VIEW]

Runways:

RWY identifierQFULength (ft)Width (ft)SurfaceLDA (ft)
062219100GRASS
242219100GRASS

Airport contact information

Address: Burnt Cabins United States

Satellite view of 05PS